Pinckney, Michigan
Current Conditions -  °F | °C
As of 1:55 PM on Saturday 25 Oct 2014 (Local Time) from KOZW Reporting Station
Clear Clear  
Wind Chill: 63°   Ceiling: Unl
Heat Index: 63°   Visibility: 10mi
Dew Point: 49°   Wind: 15mph
Humidity: 60%   Direction: 240°WSW
Pressure: 29.77"   Gusts: 22mph
Location:  42.46°N, 83.95°W
Report Text: KOZW 251755Z AUTO 24013G19KT 10SM CLR 17/09 A2977 RMK AO2 T01710093 10171 20106
Loading
Personal Weather Stations






























Interactive Weather Map
Tropical Storm Tracking
New forecast layout! Learn more

10-Day Weather Forecast

Advertisements
Track Severe Weather on mobile